sensor_id;sensor_type;location;lat;lon;timestamp;temperature;humidity
14188;DHT22;7175;51.978;5.330;2022-08-18T00:01:14;18.70;99.90
14188;DHT22;7175;51.978;5.330;2022-08-18T00:03:45;18.80;99.90
14188;DHT22;7175;51.978;5.330;2022-08-18T00:06:24;18.80;99.90
14188;DHT22;7175;51.978;5.330;2022-08-18T00:08:57;18.80;99.90
14188;DHT22;7175;51.978;5.330;2022-08-18T00:11:27;18.80;99.90
14188;DHT22;7175;51.978;5.330;2022-08-18T00:14:11;18.80;99.90
14188;DHT22;7175;51.978;5.330;2022-08-18T00:16:49;18.80;99.90
14188;DHT22;7175;51.978;5.330;2022-08-18T00:19:18;18.70;99.90
14188;DHT22;7175;51.978;5.330;2022-08-18T00:22:06;18.70;99.90
14188;DHT22;7175;51.978;5.330;2022-08-18T00:24:43;18.70;99.90
14188;DHT22;7175;51.978;5.330;2022-08-18T00:27:18;18.70;99.90
14188;DHT22;7175;51.978;5.330;2022-08-18T00:29:51;18.70;99.90
14188;DHT22;7175;51.978;5.330;2022-08-18T00:32:22;18.60;99.90
14188;DHT22;7175;51.978;5.330;2022-08-18T00:34:52;18.60;99.90
14188;DHT22;7175;51.978;5.330;2022-08-18T00:37:21;18.50;99.90
14188;DHT22;7175;51.978;5.330;2022-08-18T00:39:52;18.50;99.90
14188;DHT22;7175;51.978;5.330;2022-08-18T00:42:23;18.50;99.90
14188;DHT22;7175;51.978;5.330;2022-08-18T00:44:59;18.40;99.90
14188;DHT22;7175;51.978;5.330;2022-08-18T00:47:28;18.50;99.90
14188;DHT22;7175;51.978;5.330;2022-08-18T00:50:12;18.50;99.90
14188;DHT22;7175;51.978;5.330;2022-08-18T00:52:50;18.40;99.90
14188;DHT22;7175;51.978;5.330;2022-08-18T00:55:22;18.40;99.90
14188;DHT22;7175;51.978;5.330;2022-08-18T00:57:54;18.40;99.90
14188;DHT22;7175;51.978;5.330;2022-08-18T01:00:27;18.30;99.90
14188;DHT22;7175;51.978;5.330;2022-08-18T01:02:59;18.40;99.90
14188;DHT22;7175;51.978;5.330;2022-08-18T01:05:32;18.40;99.90
14188;DHT22;7175;51.978;5.330;2022-08-18T01:08:04;18.30;99.90
14188;DHT22;7175;51.978;5.330;2022-08-18T01:10:38;18.30;99.90
14188;DHT22;7175;51.978;5.330;2022-08-18T01:13:07;18.30;99.90
14188;DHT22;7175;51.978;5.330;2022-08-18T01:15:35;18.30;99.90
14188;DHT22;7175;51.978;5.330;2022-08-18T01:18:13;18.30;99.90
14188;DHT22;7175;51.978;5.330;2022-08-18T01:21:04;18.30;99.90
14188;DHT22;7175;51.978;5.330;2022-08-18T01:23:55;18.30;99.90
14188;DHT22;7175;51.978;5.330;2022-08-18T01:26:26;18.30;99.90
14188;DHT22;7175;51.978;5.330;2022-08-18T01:28:54;18.40;99.90
14188;DHT22;7175;51.978;5.330;2022-08-18T01:31:33;18.40;99.90
14188;DHT22;7175;51.978;5.330;2022-08-18T01:34:04;18.40;99.90
14188;DHT22;7175;51.978;5.330;2022-08-18T01:36:36;18.40;99.90
14188;DHT22;7175;51.978;5.330;2022-08-18T01:39:09;18.40;99.90
14188;DHT22;7175;51.978;5.330;2022-08-18T01:41:39;18.50;99.90
14188;DHT22;7175;51.978;5.330;2022-08-18T01:44:08;18.50;99.90
14188;DHT22;7175;51.978;5.330;2022-08-18T01:46:39;18.50;99.90
14188;DHT22;7175;51.978;5.330;2022-08-18T01:49:09;18.40;99.90
14188;DHT22;7175;51.978;5.330;2022-08-18T01:51:41;18.50;99.90
14188;DHT22;7175;51.978;5.330;2022-08-18T01:54:13;18.40;99.90
14188;DHT22;7175;51.978;5.330;2022-08-18T01:56:42;18.40;99.90
14188;DHT22;7175;51.978;5.330;2022-08-18T01:59:11;18.30;99.90
14188;DHT22;7175;51.978;5.330;2022-08-18T02:01:45;18.30;99.90
14188;DHT22;7175;51.978;5.330;2022-08-18T02:04:21;18.30;99.90
14188;DHT22;7175;51.978;5.330;2022-08-18T02:07:06;18.30;99.90
14188;DHT22;7175;51.978;5.330;2022-08-18T02:09:38;18.30;99.90
14188;DHT22;7175;51.978;5.330;2022-08-18T02:12:09;18.20;99.90
14188;DHT22;7175;51.978;5.330;2022-08-18T02:14:38;18.20;99.90
14188;DHT22;7175;51.978;5.330;2022-08-18T02:17:08;18.20;99.90
14188;DHT22;7175;51.978;5.330;2022-08-18T02:19:39;18.20;99.90
14188;DHT22;7175;51.978;5.330;2022-08-18T02:22:11;18.30;99.90
14188;DHT22;7175;51.978;5.330;2022-08-18T02:24:43;18.30;99.90
14188;DHT22;7175;51.978;5.330;2022-08-18T02:27:13;18.30;99.90
14188;DHT22;7175;51.978;5.330;2022-08-18T02:29:41;18.30;99.90
14188;DHT22;7175;51.978;5.330;2022-08-18T02:32:10;18.30;99.90
14188;DHT22;7175;51.978;5.330;2022-08-18T02:34:38;18.40;99.90
14188;DHT22;7175;51.978;5.330;2022-08-18T02:37:08;18.40;99.90
14188;DHT22;7175;51.978;5.330;2022-08-18T02:39:43;18.40;99.90
14188;DHT22;7175;51.978;5.330;2022-08-18T02:42:12;18.40;99.90
14188;DHT22;7175;51.978;5.330;2022-08-18T02:44:41;18.50;99.90
14188;DHT22;7175;51.978;5.330;2022-08-18T02:47:10;18.40;99.90
14188;DHT22;7175;51.978;5.330;2022-08-18T02:49:38;18.30;99.90
14188;DHT22;7175;51.978;5.330;2022-08-18T02:52:08;18.30;99.90
14188;DHT22;7175;51.978;5.330;2022-08-18T02:54:37;18.30;99.90
14188;DHT22;7175;51.978;5.330;2022-08-18T02:57:08;18.30;99.90
14188;DHT22;7175;51.978;5.330;2022-08-18T02:59:38;18.30;99.90
14188;DHT22;7175;51.978;5.330;2022-08-18T03:02:08;18.30;99.90
14188;DHT22;7175;51.978;5.330;2022-08-18T03:04:37;18.30;99.90
14188;DHT22;7175;51.978;5.330;2022-08-18T03:07:06;18.20;99.90
14188;DHT22;7175;51.978;5.330;2022-08-18T03:09:35;18.20;99.90
14188;DHT22;7175;51.978;5.330;2022-08-18T03:12:08;18.20;99.90
14188;DHT22;7175;51.978;5.330;2022-08-18T03:14:38;18.20;99.90
14188;DHT22;7175;51.978;5.330;2022-08-18T03:17:08;18.20;99.90
14188;DHT22;7175;51.978;5.330;2022-08-18T03:19:36;18.10;99.90
14188;DHT22;7175;51.978;5.330;2022-08-18T03:22:07;18.10;99.90
14188;DHT22;7175;51.978;5.330;2022-08-18T03:24:54;18.10;99.90
14188;DHT22;7175;51.978;5.330;2022-08-18T03:27:24;18.00;99.90
14188;DHT22;7175;51.978;5.330;2022-08-18T03:29:53;18.00;99.90
14188;DHT22;7175;51.978;5.330;2022-08-18T03:32:21;18.00;99.90
14188;DHT22;7175;51.978;5.330;2022-08-18T03:34:50;17.90;99.90
14188;DHT22;7175;51.978;5.330;2022-08-18T03:37:18;17.90;99.90
14188;DHT22;7175;51.978;5.330;2022-08-18T03:39:47;17.90;99.90
14188;DHT22;7175;51.978;5.330;2022-08-18T03:42:19;17.80;99.90
14188;DHT22;7175;51.978;5.330;2022-08-18T03:44:49;17.80;99.90
14188;DHT22;7175;51.978;5.330;2022-08-18T03:47:18;17.80;99.90
14188;DHT22;7175;51.978;5.330;2022-08-18T03:49:47;17.80;99.90
14188;DHT22;7175;51.978;5.330;2022-08-18T03:52:15;17.70;99.90
14188;DHT22;7175;51.978;5.330;2022-08-18T03:54:43;17.70;99.90
14188;DHT22;7175;51.978;5.330;2022-08-18T03:57:12;17.70;99.90
14188;DHT22;7175;51.978;5.330;2022-08-18T03:59:41;17.70;99.90
14188;DHT22;7175;51.978;5.330;2022-08-18T04:02:11;17.60;99.90
14188;DHT22;7175;51.978;5.330;2022-08-18T04:04:40;17.60;99.90
14188;DHT22;7175;51.978;5.330;2022-08-18T04:07:10;17.70;99.90
14188;DHT22;7175;51.978;5.330;2022-08-18T04:09:40;17.60;99.90
14188;DHT22;7175;51.978;5.330;2022-08-18T04:12:12;17.60;99.90
14188;DHT22;7175;51.978;5.330;2022-08-18T04:14:45;17.50;99.90
14188;DHT22;7175;51.978;5.330;2022-08-18T04:17:18;17.50;99.90
14188;DHT22;7175;51.978;5.330;2022-08-18T04:19:50;17.60;99.90
14188;DHT22;7175;51.978;5.330;2022-08-18T04:22:19;17.60;99.90
14188;DHT22;7175;51.978;5.330;2022-08-18T04:24:48;17.60;99.90
14188;DHT22;7175;51.978;5.330;2022-08-18T04:27:18;17.60;99.90
14188;DHT22;7175;51.978;5.330;2022-08-18T04:29:46;17.60;99.90
14188;DHT22;7175;51.978;5.330;2022-08-18T04:32:15;17.60;99.90
14188;DHT22;7175;51.978;5.330;2022-08-18T04:34:47;17.60;99.90
14188;DHT22;7175;51.978;5.330;2022-08-18T04:37:16;17.70;99.90
14188;DHT22;7175;51.978;5.330;2022-08-18T04:39:44;17.70;99.90
14188;DHT22;7175;51.978;5.330;2022-08-18T04:42:13;17.70;99.90
14188;DHT22;7175;51.978;5.330;2022-08-18T04:44:42;17.70;99.90
14188;DHT22;7175;51.978;5.330;2022-08-18T04:47:11;17.70;99.90
14188;DHT22;7175;51.978;5.330;2022-08-18T04:49:40;17.70;99.90
14188;DHT22;7175;51.978;5.330;2022-08-18T04:52:13;17.60;99.90
14188;DHT22;7175;51.978;5.330;2022-08-18T04:55:08;17.70;99.90
14188;DHT22;7175;51.978;5.330;2022-08-18T04:57:37;17.70;99.90
14188;DHT22;7175;51.978;5.330;2022-08-18T05:00:06;17.70;99.90
14188;DHT22;7175;51.978;5.330;2022-08-18T05:02:36;17.70;99.90
14188;DHT22;7175;51.978;5.330;2022-08-18T05:05:05;17.70;99.90
14188;DHT22;7175;51.978;5.330;2022-08-18T05:07:42;17.70;99.90
14188;DHT22;7175;51.978;5.330;2022-08-18T05:10:12;17.70;99.90
14188;DHT22;7175;51.978;5.330;2022-08-18T05:12:46;17.70;99.90
14188;DHT22;7175;51.978;5.330;2022-08-18T05:15:14;17.80;99.90
14188;DHT22;7175;51.978;5.330;2022-08-18T05:17:44;17.80;99.90
14188;DHT22;7175;51.978;5.330;2022-08-18T05:20:17;17.80;99.90
14188;DHT22;7175;51.978;5.330;2022-08-18T05:22:48;17.80;99.90
14188;DHT22;7175;51.978;5.330;2022-08-18T05:25:22;17.90;99.90
14188;DHT22;7175;51.978;5.330;2022-08-18T05:27:51;17.90;99.90
14188;DHT22;7175;51.978;5.330;2022-08-18T05:30:19;17.90;99.90
14188;DHT22;7175;51.978;5.330;2022-08-18T05:32:48;17.90;99.90
14188;DHT22;7175;51.978;5.330;2022-08-18T05:35:22;17.90;99.90
14188;DHT22;7175;51.978;5.330;2022-08-18T05:38:28;17.90;99.90
14188;DHT22;7175;51.978;5.330;2022-08-18T05:41:08;17.90;99.90
14188;DHT22;7175;51.978;5.330;2022-08-18T05:43:43;17.90;99.90
14188;DHT22;7175;51.978;5.330;2022-08-18T05:46:23;18.00;99.90
14188;DHT22;7175;51.978;5.330;2022-08-18T05:48:55;18.00;99.90
14188;DHT22;7175;51.978;5.330;2022-08-18T05:51:27;18.10;99.90
14188;DHT22;7175;51.978;5.330;2022-08-18T05:53:57;18.20;99.90
14188;DHT22;7175;51.978;5.330;2022-08-18T05:56:43;18.30;99.90
14188;DHT22;7175;51.978;5.330;2022-08-18T05:59:19;18.30;99.90
14188;DHT22;7175;51.978;5.330;2022-08-18T06:01:55;18.40;99.90
14188;DHT22;7175;51.978;5.330;2022-08-18T06:04:31;18.60;99.90
14188;DHT22;7175;51.978;5.330;2022-08-18T06:07:04;18.50;99.90
14188;DHT22;7175;51.978;5.330;2022-08-18T06:09:38;18.70;99.90
14188;DHT22;7175;51.978;5.330;2022-08-18T06:12:18;18.90;99.90
14188;DHT22;7175;51.978;5.330;2022-08-18T06:14:49;19.10;99.90
14188;DHT22;7175;51.978;5.330;2022-08-18T06:17:38;19.20;99.90
14188;DHT22;7175;51.978;5.330;2022-08-18T06:20:20;19.40;99.90
14188;DHT22;7175;51.978;5.330;2022-08-18T06:23:00;19.50;99.90
14188;DHT22;7175;51.978;5.330;2022-08-18T06:25:36;19.70;99.90
14188;DHT22;7175;51.978;5.330;2022-08-18T06:28:10;19.50;99.90
14188;DHT22;7175;51.978;5.330;2022-08-18T06:30:46;19.80;99.90
14188;DHT22;7175;51.978;5.330;2022-08-18T06:33:31;19.90;99.90
14188;DHT22;7175;51.978;5.330;2022-08-18T06:36:07;20.20;99.90
14188;DHT22;7175;51.978;5.330;2022-08-18T06:38:51;20.30;99.90
14188;DHT22;7175;51.978;5.330;2022-08-18T06:41:35;20.30;99.90
14188;DHT22;7175;51.978;5.330;2022-08-18T06:44:11;20.50;99.90
14188;DHT22;7175;51.978;5.330;2022-08-18T06:46:46;20.60;99.90
14188;DHT22;7175;51.978;5.330;2022-08-18T06:49:33;20.80;99.90
14188;DHT22;7175;51.978;5.330;2022-08-18T06:52:23;20.90;99.90
14188;DHT22;7175;51.978;5.330;2022-08-18T06:54:54;20.80;99.90
14188;DHT22;7175;51.978;5.330;2022-08-18T06:57:31;20.90;99.90
14188;DHT22;7175;51.978;5.330;2022-08-18T07:00:08;20.90;99.90
14188;DHT22;7175;51.978;5.330;2022-08-18T07:02:42;21.00;99.90
14188;DHT22;7175;51.978;5.330;2022-08-18T07:05:33;21.10;99.90
14188;DHT22;7175;51.978;5.330;2022-08-18T07:08:10;21.30;99.90
14188;DHT22;7175;51.978;5.330;2022-08-18T07:10:41;21.40;99.90
14188;DHT22;7175;51.978;5.330;2022-08-18T07:13:21;21.50;99.90
14188;DHT22;7175;51.978;5.330;2022-08-18T07:15:52;21.50;99.90
14188;DHT22;7175;51.978;5.330;2022-08-18T07:18:24;21.50;99.90
14188;DHT22;7175;51.978;5.330;2022-08-18T07:20:56;21.70;99.90
14188;DHT22;7175;51.978;5.330;2022-08-18T07:23:31;21.60;99.90
14188;DHT22;7175;51.978;5.330;2022-08-18T07:26:05;21.60;99.90
14188;DHT22;7175;51.978;5.330;2022-08-18T07:28:38;21.80;99.90
14188;DHT22;7175;51.978;5.330;2022-08-18T07:31:26;21.70;99.90
14188;DHT22;7175;51.978;5.330;2022-08-18T07:34:03;21.60;99.90
14188;DHT22;7175;51.978;5.330;2022-08-18T07:36:37;21.60;99.90
14188;DHT22;7175;51.978;5.330;2022-08-18T07:39:14;21.50;99.90
14188;DHT22;7175;51.978;5.330;2022-08-18T07:41:48;21.40;99.90
14188;DHT22;7175;51.978;5.330;2022-08-18T07:44:22;21.30;99.90
14188;DHT22;7175;51.978;5.330;2022-08-18T07:46:56;21.20;99.90
14188;DHT22;7175;51.978;5.330;2022-08-18T07:49:30;21.20;99.90
14188;DHT22;7175;51.978;5.330;2022-08-18T07:52:04;21.20;99.90
14188;DHT22;7175;51.978;5.330;2022-08-18T07:55:03;21.40;99.90
14188;DHT22;7175;51.978;5.330;2022-08-18T07:57:43;21.50;99.90
14188;DHT22;7175;51.978;5.330;2022-08-18T08:00:22;21.70;99.90
14188;DHT22;7175;51.978;5.330;2022-08-18T08:03:24;21.70;99.90
14188;DHT22;7175;51.978;5.330;2022-08-18T08:06:00;21.60;99.90
14188;DHT22;7175;51.978;5.330;2022-08-18T08:08:38;21.50;99.90
14188;DHT22;7175;51.978;5.330;2022-08-18T08:11:18;21.30;99.90
14188;DHT22;7175;51.978;5.330;2022-08-18T08:14:00;21.20;99.90
14188;DHT22;7175;51.978;5.330;2022-08-18T08:16:42;21.20;99.90
14188;DHT22;7175;51.978;5.330;2022-08-18T08:19:43;21.70;99.90
14188;DHT22;7175;51.978;5.330;2022-08-18T08:22:36;21.80;99.90
14188;DHT22;7175;51.978;5.330;2022-08-18T08:25:11;22.20;99.90
14188;DHT22;7175;51.978;5.330;2022-08-18T08:28:10;21.90;99.90
14188;DHT22;7175;51.978;5.330;2022-08-18T08:30:49;22.00;99.90
14188;DHT22;7175;51.978;5.330;2022-08-18T08:33:26;22.50;99.90
14188;DHT22;7175;51.978;5.330;2022-08-18T08:36:02;22.80;99.90
14188;DHT22;7175;51.978;5.330;2022-08-18T08:38:40;23.00;99.90
14188;DHT22;7175;51.978;5.330;2022-08-18T08:41:14;23.20;99.90
14188;DHT22;7175;51.978;5.330;2022-08-18T08:44:00;23.60;99.90
14188;DHT22;7175;51.978;5.330;2022-08-18T08:46:43;23.60;99.90
14188;DHT22;7175;51.978;5.330;2022-08-18T08:49:30;23.60;99.90
14188;DHT22;7175;51.978;5.330;2022-08-18T08:52:08;23.80;99.90
14188;DHT22;7175;51.978;5.330;2022-08-18T08:54:45;24.10;99.90
14188;DHT22;7175;51.978;5.330;2022-08-18T08:57:21;24.00;99.90
14188;DHT22;7175;51.978;5.330;2022-08-18T08:59:56;24.00;99.90
14188;DHT22;7175;51.978;5.330;2022-08-18T09:05:20;24.30;99.90
14188;DHT22;7175;51.978;5.330;2022-08-18T09:11:21;23.90;99.90
14188;DHT22;7175;51.978;5.330;2022-08-18T09:14:22;23.80;99.90
14188;DHT22;7175;51.978;5.330;2022-08-18T09:17:09;24.00;99.90
14188;DHT22;7175;51.978;5.330;2022-08-18T09:19:59;24.60;99.90
14188;DHT22;7175;51.978;5.330;2022-08-18T09:22:35;24.90;99.90
14188;DHT22;7175;51.978;5.330;2022-08-18T09:25:11;24.70;99.90
14188;DHT22;7175;51.978;5.330;2022-08-18T09:28:07;24.90;99.90
14188;DHT22;7175;51.978;5.330;2022-08-18T09:30:46;25.00;99.90
14188;DHT22;7175;51.978;5.330;2022-08-18T09:33:20;24.50;99.90
14188;DHT22;7175;51.978;5.330;2022-08-18T09:36:20;24.00;99.90
14188;DHT22;7175;51.978;5.330;2022-08-18T09:38:55;24.10;99.90
14188;DHT22;7175;51.978;5.330;2022-08-18T09:41:49;24.80;99.90
14188;DHT22;7175;51.978;5.330;2022-08-18T09:44:55;25.40;99.90
14188;DHT22;7175;51.978;5.330;2022-08-18T09:47:58;25.40;99.90
14188;DHT22;7175;51.978;5.330;2022-08-18T09:50:37;25.30;99.90
14188;DHT22;7175;51.978;5.330;2022-08-18T09:53:30;25.30;99.90
14188;DHT22;7175;51.978;5.330;2022-08-18T09:56:03;24.70;99.90
14188;DHT22;7175;51.978;5.330;2022-08-18T09:58:55;24.40;99.90
14188;DHT22;7175;51.978;5.330;2022-08-18T10:01:35;25.00;99.90
14188;DHT22;7175;51.978;5.330;2022-08-18T10:04:28;25.60;99.90
14188;DHT22;7175;51.978;5.330;2022-08-18T10:07:17;26.00;99.90
14188;DHT22;7175;51.978;5.330;2022-08-18T10:09:56;25.90;99.90
14188;DHT22;7175;51.978;5.330;2022-08-18T10:12:35;26.50;99.90
14188;DHT22;7175;51.978;5.330;2022-08-18T10:15:19;26.90;99.90
14188;DHT22;7175;51.978;5.330;2022-08-18T10:18:19;26.90;99.90
14188;DHT22;7175;51.978;5.330;2022-08-18T10:20:59;26.20;99.90
14188;DHT22;7175;51.978;5.330;2022-08-18T10:23:52;25.60;99.90
14188;DHT22;7175;51.978;5.330;2022-08-18T10:27:07;25.30;99.90
14188;DHT22;7175;51.978;5.330;2022-08-18T10:32:41;24.90;99.90
14188;DHT22;7175;51.978;5.330;2022-08-18T10:35:55;24.50;99.90
14188;DHT22;7175;51.978;5.330;2022-08-18T10:38:28;24.40;99.90
14188;DHT22;7175;51.978;5.330;2022-08-18T10:41:11;24.30;99.90
14188;DHT22;7175;51.978;5.330;2022-08-18T10:43:44;24.10;99.90
14188;DHT22;7175;51.978;5.330;2022-08-18T10:46:26;24.80;99.90
14188;DHT22;7175;51.978;5.330;2022-08-18T10:49:14;25.60;99.90
14188;DHT22;7175;51.978;5.330;2022-08-18T10:55:19;26.50;99.90
14188;DHT22;7175;51.978;5.330;2022-08-18T10:58:20;26.60;99.90
14188;DHT22;7175;51.978;5.330;2022-08-18T11:01:02;27.30;99.90
14188;DHT22;7175;51.978;5.330;2022-08-18T11:03:48;27.70;99.90
14188;DHT22;7175;51.978;5.330;2022-08-18T11:06:24;28.20;99.90
14188;DHT22;7175;51.978;5.330;2022-08-18T11:08:59;27.70;99.90
14188;DHT22;7175;51.978;5.330;2022-08-18T11:11:33;26.90;99.90
14188;DHT22;7175;51.978;5.330;2022-08-18T11:14:17;26.30;99.90
14188;DHT22;7175;51.978;5.330;2022-08-18T11:16:54;26.10;99.90
14188;DHT22;7175;51.978;5.330;2022-08-18T11:19:26;25.90;99.90
14188;DHT22;7175;51.978;5.330;2022-08-18T11:21:57;25.60;99.90
14188;DHT22;7175;51.978;5.330;2022-08-18T11:24:29;25.40;99.90
14188;DHT22;7175;51.978;5.330;2022-08-18T11:27:03;25.80;99.90
14188;DHT22;7175;51.978;5.330;2022-08-18T11:29:41;26.50;99.90
14188;DHT22;7175;51.978;5.330;2022-08-18T11:32:19;27.30;99.90
14188;DHT22;7175;51.978;5.330;2022-08-18T11:34:52;27.10;99.90
14188;DHT22;7175;51.978;5.330;2022-08-18T11:37:33;26.90;99.90
14188;DHT22;7175;51.978;5.330;2022-08-18T11:40:37;26.80;99.90
14188;DHT22;7175;51.978;5.330;2022-08-18T11:43:27;27.10;99.90
14188;DHT22;7175;51.978;5.330;2022-08-18T11:46:14;26.60;99.90
14188;DHT22;7175;51.978;5.330;2022-08-18T11:48:55;26.20;99.90
14188;DHT22;7175;51.978;5.330;2022-08-18T11:51:26;25.90;99.90
14188;DHT22;7175;51.978;5.330;2022-08-18T11:54:17;26.50;99.90
14188;DHT22;7175;51.978;5.330;2022-08-18T11:56:49;27.50;99.90
14188;DHT22;7175;51.978;5.330;2022-08-18T11:59:31;27.40;99.90
14188;DHT22;7175;51.978;5.330;2022-08-18T12:02:20;27.50;99.90
14188;DHT22;7175;51.978;5.330;2022-08-18T12:04:53;27.10;99.90
14188;DHT22;7175;51.978;5.330;2022-08-18T12:07:28;27.40;99.90
14188;DHT22;7175;51.978;5.330;2022-08-18T12:10:17;27.40;99.90
14188;DHT22;7175;51.978;5.330;2022-08-18T12:13:07;27.50;99.90
14188;DHT22;7175;51.978;5.330;2022-08-18T12:15:35;26.80;99.90
14188;DHT22;7175;51.978;5.330;2022-08-18T12:18:13;27.20;99.90
14188;DHT22;7175;51.978;5.330;2022-08-18T12:21:01;27.30;99.90
14188;DHT22;7175;51.978;5.330;2022-08-18T12:23:32;26.40;99.90
14188;DHT22;7175;51.978;5.330;2022-08-18T12:26:17;26.20;99.90
14188;DHT22;7175;51.978;5.330;2022-08-18T12:29:06;25.80;99.90
14188;DHT22;7175;51.978;5.330;2022-08-18T12:31:36;25.70;99.90
14188;DHT22;7175;51.978;5.330;2022-08-18T12:34:14;25.50;99.90
14188;DHT22;7175;51.978;5.330;2022-08-18T12:36:44;25.40;99.90
14188;DHT22;7175;51.978;5.330;2022-08-18T12:39:13;25.20;99.90
14188;DHT22;7175;51.978;5.330;2022-08-18T12:41:43;25.40;99.90
14188;DHT22;7175;51.978;5.330;2022-08-18T12:44:11;25.40;99.90
14188;DHT22;7175;51.978;5.330;2022-08-18T12:46:40;25.50;99.90
14188;DHT22;7175;51.978;5.330;2022-08-18T12:49:14;25.30;99.90
14188;DHT22;7175;51.978;5.330;2022-08-18T12:51:43;25.50;99.90
14188;DHT22;7175;51.978;5.330;2022-08-18T12:54:16;25.40;99.90
14188;DHT22;7175;51.978;5.330;2022-08-18T12:56:49;25.30;99.90
14188;DHT22;7175;51.978;5.330;2022-08-18T12:59:18;25.60;99.90
14188;DHT22;7175;51.978;5.330;2022-08-18T13:01:50;26.10;99.90
14188;DHT22;7175;51.978;5.330;2022-08-18T13:04:39;27.30;99.90
14188;DHT22;7175;51.978;5.330;2022-08-18T13:07:11;26.80;99.90
14188;DHT22;7175;51.978;5.330;2022-08-18T13:09:40;26.90;99.90
14188;DHT22;7175;51.978;5.330;2022-08-18T13:12:22;26.30;99.90
14188;DHT22;7175;51.978;5.330;2022-08-18T13:14:52;26.10;99.90
14188;DHT22;7175;51.978;5.330;2022-08-18T13:17:21;25.60;99.90
14188;DHT22;7175;51.978;5.330;2022-08-18T13:20:01;25.60;99.90
14188;DHT22;7175;51.978;5.330;2022-08-18T13:22:30;25.40;99.90
14188;DHT22;7175;51.978;5.330;2022-08-18T13:25:00;25.60;99.90
14188;DHT22;7175;51.978;5.330;2022-08-18T13:27:32;25.80;99.90
14188;DHT22;7175;51.978;5.330;2022-08-18T13:30:05;25.80;99.90
14188;DHT22;7175;51.978;5.330;2022-08-18T13:32:54;25.70;99.90
14188;DHT22;7175;51.978;5.330;2022-08-18T13:35:28;25.60;99.90
14188;DHT22;7175;51.978;5.330;2022-08-18T13:38:10;25.20;99.90
14188;DHT22;7175;51.978;5.330;2022-08-18T13:40:46;25.30;99.90
14188;DHT22;7175;51.978;5.330;2022-08-18T13:43:20;25.50;99.90
14188;DHT22;7175;51.978;5.330;2022-08-18T13:45:49;25.20;99.90
14188;DHT22;7175;51.978;5.330;2022-08-18T13:48:21;25.00;99.90
14188;DHT22;7175;51.978;5.330;2022-08-18T13:50:52;25.20;99.90
14188;DHT22;7175;51.978;5.330;2022-08-18T13:53:22;25.10;99.90
14188;DHT22;7175;51.978;5.330;2022-08-18T13:55:54;25.10;99.90
14188;DHT22;7175;51.978;5.330;2022-08-18T13:58:27;25.50;99.90
14188;DHT22;7175;51.978;5.330;2022-08-18T14:00:59;25.70;99.90
14188;DHT22;7175;51.978;5.330;2022-08-18T14:03:49;26.20;99.90
14188;DHT22;7175;51.978;5.330;2022-08-18T14:06:18;26.30;99.90
14188;DHT22;7175;51.978;5.330;2022-08-18T14:08:50;26.00;99.90
14188;DHT22;7175;51.978;5.330;2022-08-18T14:11:21;25.90;99.90
14188;DHT22;7175;51.978;5.330;2022-08-18T14:14:00;26.20;99.90
14188;DHT22;7175;51.978;5.330;2022-08-18T14:16:31;26.00;99.90
14188;DHT22;7175;51.978;5.330;2022-08-18T14:19:01;25.70;99.90
14188;DHT22;7175;51.978;5.330;2022-08-18T14:21:50;25.80;99.90
14188;DHT22;7175;51.978;5.330;2022-08-18T14:24:38;25.60;99.90
14188;DHT22;7175;51.978;5.330;2022-08-18T14:27:26;25.80;99.90
14188;DHT22;7175;51.978;5.330;2022-08-18T14:30:04;26.30;99.90
14188;DHT22;7175;51.978;5.330;2022-08-18T14:32:34;26.30;99.90
14188;DHT22;7175;51.978;5.330;2022-08-18T14:35:17;26.00;99.90
14188;DHT22;7175;51.978;5.330;2022-08-18T14:38:06;26.00;99.90
14188;DHT22;7175;51.978;5.330;2022-08-18T14:40:37;26.10;99.90
14188;DHT22;7175;51.978;5.330;2022-08-18T14:43:09;25.90;99.90
14188;DHT22;7175;51.978;5.330;2022-08-18T14:45:43;25.70;99.90
14188;DHT22;7175;51.978;5.330;2022-08-18T14:48:17;25.80;99.90
14188;DHT22;7175;51.978;5.330;2022-08-18T14:50:47;25.80;99.90
14188;DHT22;7175;51.978;5.330;2022-08-18T14:53:17;25.80;99.90
14188;DHT22;7175;51.978;5.330;2022-08-18T14:55:47;25.80;99.90
14188;DHT22;7175;51.978;5.330;2022-08-18T14:58:19;25.80;99.90
14188;DHT22;7175;51.978;5.330;2022-08-18T15:00:51;25.90;99.90
14188;DHT22;7175;51.978;5.330;2022-08-18T15:03:24;25.80;99.90
14188;DHT22;7175;51.978;5.330;2022-08-18T15:05:58;25.90;99.90
14188;DHT22;7175;51.978;5.330;2022-08-18T15:08:31;25.90;99.90
14188;DHT22;7175;51.978;5.330;2022-08-18T15:11:01;25.90;99.90
14188;DHT22;7175;51.978;5.330;2022-08-18T15:13:39;25.90;99.90
14188;DHT22;7175;51.978;5.330;2022-08-18T15:16:13;25.50;99.90
14188;DHT22;7175;51.978;5.330;2022-08-18T15:18:43;25.50;99.90
14188;DHT22;7175;51.978;5.330;2022-08-18T15:21:12;25.50;99.90
14188;DHT22;7175;51.978;5.330;2022-08-18T15:24:05;25.40;99.90
14188;DHT22;7175;51.978;5.330;2022-08-18T15:26:53;25.30;99.90
14188;DHT22;7175;51.978;5.330;2022-08-18T15:29:25;25.30;99.90
14188;DHT22;7175;51.978;5.330;2022-08-18T15:31:57;25.40;99.90
14188;DHT22;7175;51.978;5.330;2022-08-18T15:34:30;25.40;99.90
14188;DHT22;7175;51.978;5.330;2022-08-18T15:37:17;25.50;99.90
14188;DHT22;7175;51.978;5.330;2022-08-18T15:40:00;25.40;99.90
14188;DHT22;7175;51.978;5.330;2022-08-18T15:42:31;25.30;99.90
14188;DHT22;7175;51.978;5.330;2022-08-18T15:45:04;25.30;99.90
14188;DHT22;7175;51.978;5.330;2022-08-18T15:47:41;25.40;99.90
14188;DHT22;7175;51.978;5.330;2022-08-18T15:50:14;25.30;99.90
14188;DHT22;7175;51.978;5.330;2022-08-18T15:52:55;25.20;99.90
14188;DHT22;7175;51.978;5.330;2022-08-18T15:55:27;25.20;99.90
14188;DHT22;7175;51.978;5.330;2022-08-18T15:58:02;25.30;99.90
14188;DHT22;7175;51.978;5.330;2022-08-18T16:00:40;25.40;99.90
14188;DHT22;7175;51.978;5.330;2022-08-18T16:03:14;25.50;99.90
14188;DHT22;7175;51.978;5.330;2022-08-18T16:05:46;25.50;99.90
14188;DHT22;7175;51.978;5.330;2022-08-18T16:08:23;25.40;99.90
14188;DHT22;7175;51.978;5.330;2022-08-18T16:10:53;25.30;99.90
14188;DHT22;7175;51.978;5.330;2022-08-18T16:13:24;25.30;99.90
14188;DHT22;7175;51.978;5.330;2022-08-18T16:15:55;25.30;99.90
14188;DHT22;7175;51.978;5.330;2022-08-18T16:18:25;25.40;99.90
14188;DHT22;7175;51.978;5.330;2022-08-18T16:21:02;25.30;99.90
14188;DHT22;7175;51.978;5.330;2022-08-18T16:23:31;25.20;99.90
14188;DHT22;7175;51.978;5.330;2022-08-18T16:26:03;25.20;99.90
14188;DHT22;7175;51.978;5.330;2022-08-18T16:28:35;25.10;99.90
14188;DHT22;7175;51.978;5.330;2022-08-18T16:31:06;24.90;99.90
14188;DHT22;7175;51.978;5.330;2022-08-18T16:33:36;24.90;99.90
14188;DHT22;7175;51.978;5.330;2022-08-18T16:36:06;24.90;99.90
14188;DHT22;7175;51.978;5.330;2022-08-18T16:38:37;24.90;99.90
14188;DHT22;7175;51.978;5.330;2022-08-18T16:41:08;24.70;99.90
14188;DHT22;7175;51.978;5.330;2022-08-18T16:43:41;24.70;99.90
14188;DHT22;7175;51.978;5.330;2022-08-18T16:46:12;24.70;99.90
14188;DHT22;7175;51.978;5.330;2022-08-18T16:48:45;24.70;99.90
14188;DHT22;7175;51.978;5.330;2022-08-18T16:51:14;24.50;99.90
14188;DHT22;7175;51.978;5.330;2022-08-18T16:53:43;24.50;99.90